sensor_id;sensor_type;location;lat;lon;timestamp;pressure;altitude;pressure_sealevel;temperature;humidity
64668;BME280;51077;42.716;23.344;2024-01-06T00:02:05;95206.50;;;10.50;52.88
64668;BME280;51077;42.716;23.344;2024-01-06T00:04:30;95206.97;;;10.49;53.04
64668;BME280;51077;42.716;23.344;2024-01-06T00:06:56;95215.22;;;10.49;53.02
64668;BME280;51077;42.716;23.344;2024-01-06T00:09:21;95203.50;;;10.48;52.93
64668;BME280;51077;42.716;23.344;2024-01-06T00:11:46;95184.81;;;10.47;53.02
64668;BME280;51077;42.716;23.344;2024-01-06T00:14:12;95171.09;;;10.47;52.92
64668;BME280;51077;42.716;23.344;2024-01-06T00:16:37;95178.34;;;10.44;53.16
64668;BME280;51077;42.716;23.344;2024-01-06T00:19:02;95191.31;;;10.44;53.05
64668;BME280;51077;42.716;23.344;2024-01-06T00:21:28;95207.56;;;10.42;53.22
64668;BME280;51077;42.716;23.344;2024-01-06T00:23:53;95215.06;;;10.41;52.93
64668;BME280;51077;42.716;23.344;2024-01-06T00:26:21;95217.06;;;10.41;53.11
64668;BME280;51077;42.716;23.344;2024-01-06T00:28:46;95216.28;;;10.40;53.14
64668;BME280;51077;42.716;23.344;2024-01-06T00:31:14;95209.09;;;10.37;53.02
64668;BME280;51077;42.716;23.344;2024-01-06T00:33:41;95203.63;;;10.37;53.10
64668;BME280;51077;42.716;23.344;2024-01-06T00:36:07;95203.88;;;10.34;53.11
64668;BME280;51077;42.716;23.344;2024-01-06T00:38:33;95213.13;;;10.30;53.11
64668;BME280;51077;42.716;23.344;2024-01-06T00:40:58;95216.41;;;10.29;53.02
64668;BME280;51077;42.716;23.344;2024-01-06T00:43:23;95207.91;;;10.27;53.04
64668;BME280;51077;42.716;23.344;2024-01-06T00:45:49;95205.69;;;10.25;53.15
64668;BME280;51077;42.716;23.344;2024-01-06T00:48:14;95200.44;;;10.22;53.13
64668;BME280;51077;42.716;23.344;2024-01-06T00:50:40;95202.97;;;10.20;53.02
64668;BME280;51077;42.716;23.344;2024-01-06T00:53:05;95185.31;;;10.15;53.12
64668;BME280;51077;42.716;23.344;2024-01-06T00:55:31;95181.06;;;10.14;53.11
64668;BME280;51077;42.716;23.344;2024-01-06T00:57:56;95201.28;;;10.11;53.43
64668;BME280;51077;42.716;23.344;2024-01-06T01:00:22;95198.81;;;10.07;53.40
64668;BME280;51077;42.716;23.344;2024-01-06T01:02:48;95201.31;;;10.05;53.33
64668;BME280;51077;42.716;23.344;2024-01-06T01:05:13;95197.63;;;10.03;53.26
64668;BME280;51077;42.716;23.344;2024-01-06T01:07:39;95188.41;;;10.00;53.33
64668;BME280;51077;42.716;23.344;2024-01-06T01:10:04;95202.63;;;9.99;53.31
64668;BME280;51077;42.716;23.344;2024-01-06T01:12:31;95199.16;;;9.98;53.40
64668;BME280;51077;42.716;23.344;2024-01-06T01:14:56;95185.72;;;9.95;53.58
64668;BME280;51077;42.716;23.344;2024-01-06T01:17:22;95192.19;;;9.92;53.44
64668;BME280;51077;42.716;23.344;2024-01-06T01:19:47;95193.47;;;9.91;53.51
64668;BME280;51077;42.716;23.344;2024-01-06T01:22:13;95186.97;;;9.88;53.53
64668;BME280;51077;42.716;23.344;2024-01-06T01:24:39;95185.50;;;9.87;53.43
64668;BME280;51077;42.716;23.344;2024-01-06T01:27:04;95192.03;;;9.84;53.55
64668;BME280;51077;42.716;23.344;2024-01-06T01:29:30;95188.50;;;9.83;53.60
64668;BME280;51077;42.716;23.344;2024-01-06T01:31:55;95184.28;;;9.82;53.65
64668;BME280;51077;42.716;23.344;2024-01-06T01:34:21;95186.06;;;9.80;53.58
64668;BME280;51077;42.716;23.344;2024-01-06T01:36:46;95177.59;;;9.78;53.57
64668;BME280;51077;42.716;23.344;2024-01-06T01:39:12;95176.09;;;9.77;53.72
64668;BME280;51077;42.716;23.344;2024-01-06T01:41:37;95169.88;;;9.76;53.67
64668;BME280;51077;42.716;23.344;2024-01-06T01:44:02;95168.41;;;9.75;53.67
64668;BME280;51077;42.716;23.344;2024-01-06T01:46:30;95163.41;;;9.74;53.80
64668;BME280;51077;42.716;23.344;2024-01-06T01:48:56;95155.19;;;9.74;53.78
64668;BME280;51077;42.716;23.344;2024-01-06T01:51:28;95155.94;;;9.74;53.86
64668;BME280;51077;42.716;23.344;2024-01-06T01:53:55;95152.22;;;9.72;53.97
64668;BME280;51077;42.716;23.344;2024-01-06T01:56:22;95155.72;;;9.72;54.04
64668;BME280;51077;42.716;23.344;2024-01-06T01:58:47;95149.50;;;9.72;54.12
64668;BME280;51077;42.716;23.344;2024-01-06T02:01:14;95152.97;;;9.72;54.15
64668;BME280;51077;42.716;23.344;2024-01-06T02:03:41;95162.66;;;9.73;54.12
64668;BME280;51077;42.716;23.344;2024-01-06T02:06:09;95160.44;;;9.72;53.98
64668;BME280;51077;42.716;23.344;2024-01-06T02:08:34;95149.50;;;9.72;54.13
64668;BME280;51077;42.716;23.344;2024-01-06T02:11:00;95143.25;;;9.71;54.34
64668;BME280;51077;42.716;23.344;2024-01-06T02:13:36;95135.25;;;9.73;53.88
64668;BME280;51077;42.716;23.344;2024-01-06T02:16:05;95122.09;;;9.72;53.98
64668;BME280;51077;42.716;23.344;2024-01-06T02:18:31;95120.59;;;9.71;53.93
64668;BME280;51077;42.716;23.344;2024-01-06T02:20:58;95121.56;;;9.73;54.03
64668;BME280;51077;42.716;23.344;2024-01-06T02:23:24;95113.34;;;9.73;53.92
64668;BME280;51077;42.716;23.344;2024-01-06T02:25:49;95106.38;;;9.72;53.89
64668;BME280;51077;42.716;23.344;2024-01-06T02:28:15;95107.13;;;9.73;53.83
64668;BME280;51077;42.716;23.344;2024-01-06T02:30:40;95098.91;;;9.73;53.83
64668;BME280;51077;42.716;23.344;2024-01-06T02:33:06;95100.91;;;9.72;54.00
64668;BME280;51077;42.716;23.344;2024-01-06T02:35:31;95093.94;;;9.71;53.90
64668;BME280;51077;42.716;23.344;2024-01-06T02:37:56;95097.41;;;9.72;53.84
64668;BME280;51077;42.716;23.344;2024-01-06T02:40:22;95094.69;;;9.72;53.74
64668;BME280;51077;42.716;23.344;2024-01-06T02:42:47;95096.16;;;9.73;53.79
64668;BME280;51077;42.716;23.344;2024-01-06T02:45:12;95101.63;;;9.73;53.67
64668;BME280;51077;42.716;23.344;2024-01-06T02:47:38;95093.41;;;9.73;53.74
64668;BME280;51077;42.716;23.344;2024-01-06T02:50:04;95086.47;;;9.72;53.58
64668;BME280;51077;42.716;23.344;2024-01-06T02:52:30;95093.19;;;9.71;53.63
64668;BME280;51077;42.716;23.344;2024-01-06T02:54:55;95091.69;;;9.70;53.68
64668;BME280;51077;42.716;23.344;2024-01-06T02:57:20;95092.94;;;9.69;53.80
64668;BME280;51077;42.716;23.344;2024-01-06T02:59:46;95091.22;;;9.66;53.75
64668;BME280;51077;42.716;23.344;2024-01-06T03:02:11;95063.06;;;9.65;54.01
64668;BME280;51077;42.716;23.344;2024-01-06T03:04:37;95064.34;;;9.64;53.72
64668;BME280;51077;42.716;23.344;2024-01-06T03:07:02;95064.13;;;9.62;53.90
64668;BME280;51077;42.716;23.344;2024-01-06T03:09:28;95065.88;;;9.60;54.05
64668;BME280;51077;42.716;23.344;2024-01-06T03:11:53;95072.81;;;9.61;53.93
64668;BME280;51077;42.716;23.344;2024-01-06T03:14:18;95072.09;;;9.60;54.05
64668;BME280;51077;42.716;23.344;2024-01-06T03:16:44;95066.59;;;9.60;54.05
64668;BME280;51077;42.716;23.344;2024-01-06T03:19:09;95068.59;;;9.60;54.08
64668;BME280;51077;42.716;23.344;2024-01-06T03:21:34;95065.13;;;9.59;54.12
64668;BME280;51077;42.716;23.344;2024-01-06T03:24:00;95064.38;;;9.59;53.93
64668;BME280;51077;42.716;23.344;2024-01-06T03:26:25;95061.41;;;9.56;54.10
64668;BME280;51077;42.716;23.344;2024-01-06T03:28:50;95059.19;;;9.55;53.98
64668;BME280;51077;42.716;23.344;2024-01-06T03:31:16;95060.94;;;9.52;54.11
64668;BME280;51077;42.716;23.344;2024-01-06T03:33:43;95059.44;;;9.51;54.04
64668;BME280;51077;42.716;23.344;2024-01-06T03:36:09;95055.22;;;9.50;54.18
64668;BME280;51077;42.716;23.344;2024-01-06T03:38:34;95063.94;;;9.49;54.23
64668;BME280;51077;42.716;23.344;2024-01-06T03:41:00;95065.19;;;9.48;54.30
64668;BME280;51077;42.716;23.344;2024-01-06T03:43:25;95058.25;;;9.47;54.19
64668;BME280;51077;42.716;23.344;2024-01-06T03:45:51;95055.28;;;9.45;54.43
64668;BME280;51077;42.716;23.344;2024-01-06T03:48:16;95064.72;;;9.44;54.32
64668;BME280;51077;42.716;23.344;2024-01-06T03:50:42;95064.00;;;9.43;54.27
64668;BME280;51077;42.716;23.344;2024-01-06T03:53:07;95054.28;;;9.42;54.35
64668;BME280;51077;42.716;23.344;2024-01-06T03:55:33;95062.25;;;9.40;54.31
64668;BME280;51077;42.716;23.344;2024-01-06T03:57:58;95066.50;;;9.41;54.36
64668;BME280;51077;42.716;23.344;2024-01-06T04:00:25;95056.28;;;9.42;54.27
64668;BME280;51077;42.716;23.344;2024-01-06T04:02:51;95044.06;;;9.43;54.28
64668;BME280;51077;42.716;23.344;2024-01-06T04:05:16;95043.34;;;9.42;54.15
64668;BME280;51077;42.716;23.344;2024-01-06T04:07:41;95057.78;;;9.43;54.21
64668;BME280;51077;42.716;23.344;2024-01-06T04:10:07;95055.56;;;9.41;54.10
64668;BME280;51077;42.716;23.344;2024-01-06T04:12:32;95063.03;;;9.41;54.28
64668;BME280;51077;42.716;23.344;2024-01-06T04:14:58;95059.53;;;9.40;54.27
64668;BME280;51077;42.716;23.344;2024-01-06T04:17:23;95065.75;;;9.41;54.21
64668;BME280;51077;42.716;23.344;2024-01-06T04:19:51;95060.78;;;9.39;54.07
64668;BME280;51077;42.716;23.344;2024-01-06T04:22:16;95063.28;;;9.37;54.35
64668;BME280;51077;42.716;23.344;2024-01-06T04:24:41;95047.34;;;9.36;54.14
64668;BME280;51077;42.716;23.344;2024-01-06T04:27:07;95045.88;;;9.35;54.00
64668;BME280;51077;42.716;23.344;2024-01-06T04:29:33;95053.63;;;9.30;54.21
64668;BME280;51077;42.716;23.344;2024-01-06T04:31:58;95055.38;;;9.28;54.19
64668;BME280;51077;42.716;23.344;2024-01-06T04:34:24;95076.56;;;9.27;54.14
64668;BME280;51077;42.716;23.344;2024-01-06T04:36:49;95074.09;;;9.24;54.15
64668;BME280;51077;42.716;23.344;2024-01-06T04:39:15;95087.53;;;9.22;54.17
64668;BME280;51077;42.716;23.344;2024-01-06T04:41:40;95079.09;;;9.20;54.07
64668;BME280;51077;42.716;23.344;2024-01-06T04:44:06;95076.84;;;9.18;54.02
64668;BME280;51077;42.716;23.344;2024-01-06T04:46:31;95073.13;;;9.16;54.08
64668;BME280;51077;42.716;23.344;2024-01-06T04:48:57;95081.09;;;9.14;53.96
64668;BME280;51077;42.716;23.344;2024-01-06T04:51:22;95077.41;;;9.11;54.18
64668;BME280;51077;42.716;23.344;2024-01-06T04:53:47;95079.16;;;9.09;54.05
64668;BME280;51077;42.716;23.344;2024-01-06T04:56:13;95083.66;;;9.06;53.97
64668;BME280;51077;42.716;23.344;2024-01-06T04:58:38;95075.94;;;9.04;54.01
64668;BME280;51077;42.716;23.344;2024-01-06T05:01:04;95075.44;;;9.00;54.18
64668;BME280;51077;42.716;23.344;2024-01-06T05:03:30;95082.91;;;9.00;54.05
64668;BME280;51077;42.716;23.344;2024-01-06T05:05:55;95078.47;;;8.97;54.11
64668;BME280;51077;42.716;23.344;2024-01-06T05:08:21;95085.69;;;8.94;53.75
64668;BME280;51077;42.716;23.344;2024-01-06T05:10:48;95069.00;;;8.92;54.29
64668;BME280;51077;42.716;23.344;2024-01-06T05:13:14;95049.63;;;8.90;54.27
64668;BME280;51077;42.716;23.344;2024-01-06T05:15:39;95048.91;;;8.90;54.03
64668;BME280;51077;42.716;23.344;2024-01-06T05:18:05;95050.63;;;8.87;54.28
64668;BME280;51077;42.716;23.344;2024-01-06T05:20:30;95049.66;;;8.85;54.18
64668;BME280;51077;42.716;23.344;2024-01-06T05:22:56;95064.09;;;8.85;53.98
64668;BME280;51077;42.716;23.344;2024-01-06T05:25:21;95046.69;;;8.82;54.15
64668;BME280;51077;42.716;23.344;2024-01-06T05:27:47;95057.16;;;8.78;54.03
64668;BME280;51077;42.716;23.344;2024-01-06T05:30:12;95043.72;;;8.75;54.31
64668;BME280;51077;42.716;23.344;2024-01-06T05:32:38;95038.03;;;8.73;54.40
64668;BME280;51077;42.716;23.344;2024-01-06T05:35:04;95030.03;;;8.75;55.60
64668;BME280;51077;42.716;23.344;2024-01-06T05:37:29;95029.06;;;8.72;56.68
64668;BME280;51077;42.716;23.344;2024-01-06T05:39:55;95025.59;;;8.72;56.40
64668;BME280;51077;42.716;23.344;2024-01-06T05:42:21;95048.22;;;8.72;56.80
64668;BME280;51077;42.716;23.344;2024-01-06T05:44:46;95040.53;;;8.71;56.77
64668;BME280;51077;42.716;23.344;2024-01-06T05:47:11;95035.06;;;8.71;56.87
64668;BME280;51077;42.716;23.344;2024-01-06T05:49:41;95047.22;;;8.70;57.00
64668;BME280;51077;42.716;23.344;2024-01-06T05:52:08;95032.81;;;8.69;56.88
64668;BME280;51077;42.716;23.344;2024-01-06T05:54:33;95036.06;;;8.68;57.24
64668;BME280;51077;42.716;23.344;2024-01-06T05:56:59;95042.28;;;8.68;57.00
64668;BME280;51077;42.716;23.344;2024-01-06T05:59:25;95039.53;;;8.68;57.25
64668;BME280;51077;42.716;23.344;2024-01-06T06:01:50;95038.53;;;8.66;57.29
64668;BME280;51077;42.716;23.344;2024-01-06T06:04:15;95040.06;;;8.67;57.04
64668;BME280;51077;42.716;23.344;2024-01-06T06:06:41;95035.81;;;8.66;57.08
64668;BME280;51077;42.716;23.344;2024-01-06T06:09:06;95026.88;;;8.65;57.27
64668;BME280;51077;42.716;23.344;2024-01-06T06:11:33;95035.81;;;8.66;57.30
64668;BME280;51077;42.716;23.344;2024-01-06T06:13:58;95037.06;;;8.65;57.32
64668;BME280;51077;42.716;23.344;2024-01-06T06:16:24;95028.84;;;8.65;57.43
64668;BME280;51077;42.716;23.344;2024-01-06T06:18:49;95027.59;;;8.66;57.05
64668;BME280;51077;42.716;23.344;2024-01-06T06:21:15;95035.31;;;8.67;57.03
64668;BME280;51077;42.716;23.344;2024-01-06T06:23:41;95023.66;;;8.67;57.28
64668;BME280;51077;42.716;23.344;2024-01-06T06:26:07;95024.88;;;8.66;57.37
64668;BME280;51077;42.716;23.344;2024-01-06T06:28:33;95038.81;;;8.68;57.22
64668;BME280;51077;42.716;23.344;2024-01-06T06:30:59;95041.53;;;8.68;57.26
64668;BME280;51077;42.716;23.344;2024-01-06T06:33:25;95033.56;;;8.70;57.17
64668;BME280;51077;42.716;23.344;2024-01-06T06:35:51;95058.91;;;8.70;56.98
64668;BME280;51077;42.716;23.344;2024-01-06T06:38:16;95043.28;;;8.71;57.08
64668;BME280;51077;42.716;23.344;2024-01-06T06:40:42;95047.72;;;8.74;56.98
64668;BME280;51077;42.716;23.344;2024-01-06T06:43:07;95053.44;;;8.76;56.74
64668;BME280;51077;42.716;23.344;2024-01-06T06:45:33;95049.44;;;8.77;56.90
64668;BME280;51077;42.716;23.344;2024-01-06T06:47:59;95036.75;;;8.79;56.82
64668;BME280;51077;42.716;23.344;2024-01-06T06:50:24;95034.25;;;8.81;56.62
64668;BME280;51077;42.716;23.344;2024-01-06T06:52:50;95036.72;;;8.85;56.76
64668;BME280;51077;42.716;23.344;2024-01-06T06:55:15;95039.19;;;8.89;56.56
64668;BME280;51077;42.716;23.344;2024-01-06T06:57:41;95049.13;;;8.92;56.54
64668;BME280;51077;42.716;23.344;2024-01-06T07:00:07;95049.38;;;8.94;56.26
64668;BME280;51077;42.716;23.344;2024-01-06T07:02:35;95036.66;;;8.96;56.40
64668;BME280;51077;42.716;23.344;2024-01-06T07:05:01;95028.19;;;9.00;56.12
64668;BME280;51077;42.716;23.344;2024-01-06T07:07:26;95033.13;;;9.07;56.17
64668;BME280;51077;42.716;23.344;2024-01-06T07:09:53;95008.44;;;9.13;55.89
64668;BME280;51077;42.716;23.344;2024-01-06T07:12:19;95033.78;;;9.19;55.75
64668;BME280;51077;42.716;23.344;2024-01-06T07:14:44;95031.75;;;9.25;55.69
64668;BME280;51077;42.716;23.344;2024-01-06T07:17:10;95014.00;;;9.31;55.59
64668;BME280;51077;42.716;23.344;2024-01-06T07:19:35;95029.91;;;9.39;55.47
64668;BME280;51077;42.716;23.344;2024-01-06T07:22:01;95030.09;;;9.46;55.22
64668;BME280;51077;42.716;23.344;2024-01-06T07:24:26;95016.81;;;9.56;55.10
64668;BME280;51077;42.716;23.344;2024-01-06T07:26:52;95025.22;;;9.64;55.04
64668;BME280;51077;42.716;23.344;2024-01-06T07:29:18;95030.59;;;9.75;54.79
64668;BME280;51077;42.716;23.344;2024-01-06T07:31:44;95035.78;;;9.84;54.60
64668;BME280;51077;42.716;23.344;2024-01-06T07:34:09;95029.97;;;9.93;54.54
64668;BME280;51077;42.716;23.344;2024-01-06T07:36:34;95036.84;;;10.00;54.43
64668;BME280;51077;42.716;23.344;2024-01-06T07:39:00;95022.06;;;10.08;54.06
64668;BME280;51077;42.716;23.344;2024-01-06T07:41:25;95023.50;;;10.15;54.10
64668;BME280;51077;42.716;23.344;2024-01-06T07:43:51;95024.91;;;10.22;54.07
64668;BME280;51077;42.716;23.344;2024-01-06T07:46:17;95035.09;;;10.27;54.06
64668;BME280;51077;42.716;23.344;2024-01-06T07:48:42;95037.28;;;10.34;53.96
64668;BME280;51077;42.716;23.344;2024-01-06T07:51:07;95000.81;;;10.39;53.66
64668;BME280;51077;42.716;23.344;2024-01-06T07:53:33;95035.66;;;10.44;53.49
64668;BME280;51077;42.716;23.344;2024-01-06T07:55:58;95021.59;;;10.53;53.40
64668;BME280;51077;42.716;23.344;2024-01-06T07:58:26;95043.50;;;10.59;53.17
64668;BME280;51077;42.716;23.344;2024-01-06T08:00:52;95038.38;;;10.69;52.85
64668;BME280;51077;42.716;23.344;2024-01-06T08:03:18;95022.81;;;10.77;52.73
64668;BME280;51077;42.716;23.344;2024-01-06T08:05:43;95026.53;;;10.98;52.17
64668;BME280;51077;42.716;23.344;2024-01-06T08:08:09;95035.03;;;11.14;51.97
64668;BME280;51077;42.716;23.344;2024-01-06T08:10:34;95041.66;;;11.24;51.76
64668;BME280;51077;42.716;23.344;2024-01-06T08:12:59;95048.03;;;11.32;51.43
64668;BME280;51077;42.716;23.344;2024-01-06T08:15:25;95031.16;;;11.41;51.37
64668;BME280;51077;42.716;23.344;2024-01-06T08:17:50;95049.31;;;11.44;51.28
64668;BME280;51077;42.716;23.344;2024-01-06T08:20:16;95028.53;;;11.49;51.28
64668;BME280;51077;42.716;23.344;2024-01-06T08:22:41;95019.38;;;11.60;50.99
64668;BME280;51077;42.716;23.344;2024-01-06T08:25:07;95045.50;;;11.66;50.74
64668;BME280;51077;42.716;23.344;2024-01-06T08:27:33;95018.03;;;11.79;50.43
64668;BME280;51077;42.716;23.344;2024-01-06T08:29:58;95018.00;;;11.98;49.80
64668;BME280;51077;42.716;23.344;2024-01-06T08:32:23;95030.91;;;12.03;49.83
64668;BME280;51077;42.716;23.344;2024-01-06T08:34:49;95021.41;;;12.18;49.46
64668;BME280;51077;42.716;23.344;2024-01-06T08:37:14;95020.97;;;12.40;49.03
64668;BME280;51077;42.716;23.344;2024-01-06T08:39:40;95040.66;;;12.71;48.27
64668;BME280;51077;42.716;23.344;2024-01-06T08:42:06;95027.13;;;13.07;47.67
64668;BME280;51077;42.716;23.344;2024-01-06T08:44:32;95031.25;;;13.14;47.50
64668;BME280;51077;42.716;23.344;2024-01-06T08:46:57;95043.19;;;13.29;46.97
64668;BME280;51077;42.716;23.344;2024-01-06T08:49:22;95028.66;;;13.63;46.80
64668;BME280;51077;42.716;23.344;2024-01-06T08:51:48;95009.63;;;14.01;45.89
64668;BME280;51077;42.716;23.344;2024-01-06T08:54:13;95035.88;;;14.16;45.49
64668;BME280;51077;42.716;23.344;2024-01-06T08:56:39;95023.13;;;14.33;45.31
64668;BME280;51077;42.716;23.344;2024-01-06T08:59:04;95019.28;;;14.37;45.08
64668;BME280;51077;42.716;23.344;2024-01-06T09:01:30;95013.03;;;14.44;44.83
64668;BME280;51077;42.716;23.344;2024-01-06T09:03:56;95013.06;;;14.80;44.21
64668;BME280;51077;42.716;23.344;2024-01-06T09:06:23;95016.41;;;14.86;44.01
64668;BME280;51077;42.716;23.344;2024-01-06T09:08:48;94995.78;;;14.87;43.87
64668;BME280;51077;42.716;23.344;2024-01-06T09:11:13;95001.69;;;14.91;43.56
64668;BME280;51077;42.716;23.344;2024-01-06T09:13:39;94999.69;;;14.99;43.27
64668;BME280;51077;42.716;23.344;2024-01-06T09:16:04;94992.97;;;15.31;42.82
64668;BME280;51077;42.716;23.344;2024-01-06T09:18:30;94983.44;;;15.70;42.31
64668;BME280;51077;42.716;23.344;2024-01-06T09:20:55;94994.72;;;15.95;41.98
64668;BME280;51077;42.716;23.344;2024-01-06T09:23:22;94974.75;;;15.97;41.84
64668;BME280;51077;42.716;23.344;2024-01-06T09:25:47;94973.66;;;15.92;41.57
64668;BME280;51077;42.716;23.344;2024-01-06T09:28:15;94979.56;;;15.89;41.71
64668;BME280;51077;42.716;23.344;2024-01-06T09:30:40;94978.09;;;15.80;41.27
64668;BME280;51077;42.716;23.344;2024-01-06T09:33:06;94975.88;;;15.71;41.33
64668;BME280;51077;42.716;23.344;2024-01-06T09:35:33;94949.88;;;15.58;41.52
64668;BME280;51077;42.716;23.344;2024-01-06T09:37:59;94965.13;;;15.44;41.74
64668;BME280;51077;42.716;23.344;2024-01-06T09:40:24;94964.56;;;15.30;41.92
64668;BME280;51077;42.716;23.344;2024-01-06T09:42:50;94951.66;;;15.18;42.20
64668;BME280;51077;42.716;23.344;2024-01-06T09:45:16;94944.97;;;15.05;42.40
64668;BME280;51077;42.716;23.344;2024-01-06T09:47:44;94939.81;;;14.94;42.38
64668;BME280;51077;42.716;23.344;2024-01-06T09:50:13;94941.44;;;14.82;42.53
64668;BME280;51077;42.716;23.344;2024-01-06T09:52:40;94935.50;;;14.70;42.60
64668;BME280;51077;42.716;23.344;2024-01-06T09:55:12;94930.31;;;14.59;42.78
64668;BME280;51077;42.716;23.344;2024-01-06T09:57:38;94942.41;;;14.48;42.95
64668;BME280;51077;42.716;23.344;2024-01-06T10:00:04;94929.28;;;14.41;43.08
64668;BME280;51077;42.716;23.344;2024-01-06T10:02:30;94913.03;;;14.30;43.08
64668;BME280;51077;42.716;23.344;2024-01-06T10:04:59;94901.03;;;14.20;42.91
64668;BME280;51077;42.716;23.344;2024-01-06T10:07:25;94895.25;;;14.10;43.10
64668;BME280;51077;42.716;23.344;2024-01-06T10:09:54;94914.75;;;14.04;43.21
64668;BME280;51077;42.716;23.344;2024-01-06T10:12:24;94899.63;;;13.98;43.19
64668;BME280;51077;42.716;23.344;2024-01-06T10:14:50;94901.06;;;13.91;43.35
64668;BME280;51077;42.716;23.344;2024-01-06T10:17:18;94892.19;;;13.85;43.38
64668;BME280;51077;42.716;23.344;2024-01-06T10:19:47;94886.06;;;13.79;43.08
64668;BME280;51077;42.716;23.344;2024-01-06T10:22:14;94902.97;;;13.75;43.41
64668;BME280;51077;42.716;23.344;2024-01-06T10:24:39;94895.06;;;13.72;43.45
64668;BME280;51077;42.716;23.344;2024-01-06T10:27:05;94887.88;;;13.69;43.50
64668;BME280;51077;42.716;23.344;2024-01-06T10:29:32;94872.00;;;13.62;43.72
64668;BME280;51077;42.716;23.344;2024-01-06T10:31:58;94871.59;;;13.57;43.54
64668;BME280;51077;42.716;23.344;2024-01-06T10:34:24;94878.22;;;13.54;43.51
64668;BME280;51077;42.716;23.344;2024-01-06T10:36:50;94866.25;;;13.52;43.46
64668;BME280;51077;42.716;23.344;2024-01-06T10:39:18;94867.53;;;13.51;43.51
64668;BME280;51077;42.716;23.344;2024-01-06T10:41:43;94857.78;;;13.50;43.50
64668;BME280;51077;42.716;23.344;2024-01-06T10:44:10;94851.50;;;13.49;43.70
64668;BME280;51077;42.716;23.344;2024-01-06T10:46:38;94841.56;;;13.46;43.58
64668;BME280;51077;42.716;23.344;2024-01-06T10:49:05;94856.66;;;13.45;43.69
64668;BME280;51077;42.716;23.344;2024-01-06T10:51:33;94846.47;;;13.40;43.72
64668;BME280;51077;42.716;23.344;2024-01-06T10:54:00;94820.94;;;13.40;43.66
64668;BME280;51077;42.716;23.344;2024-01-06T10:56:26;94833.81;;;13.37;43.80
64668;BME280;51077;42.716;23.344;2024-01-06T10:58:53;94830.81;;;13.35;43.67
64668;BME280;51077;42.716;23.344;2024-01-06T11:01:21;94838.56;;;13.37;43.89
64668;BME280;51077;42.716;23.344;2024-01-06T11:03:47;94825.31;;;13.35;43.96
64668;BME280;51077;42.716;23.344;2024-01-06T11:06:13;94805.28;;;13.35;43.83
64668;BME280;51077;42.716;23.344;2024-01-06T11:08:48;94808.78;;;13.35;43.82
64668;BME280;51077;42.716;23.344;2024-01-06T11:11:19;94807.88;;;13.40;43.64
64668;BME280;51077;42.716;23.344;2024-01-06T11:13:45;94802.59;;;13.42;43.56
64668;BME280;51077;42.716;23.344;2024-01-06T11:16:33;94808.16;;;13.50;43.47
64668;BME280;51077;42.716;23.344;2024-01-06T11:19:00;94797.75;;;13.64;43.25
64668;BME280;51077;42.716;23.344;2024-01-06T11:21:26;94802.59;;;13.78;42.94
64668;BME280;51077;42.716;23.344;2024-01-06T11:24:15;94803.06;;;13.98;42.75
64668;BME280;51077;42.716;23.344;2024-01-06T11:26:45;94781.41;;;14.17;42.45
64668;BME280;51077;42.716;23.344;2024-01-06T11:29:14;94796.75;;;14.33;42.24
64668;BME280;51077;42.716;23.344;2024-01-06T11:31:40;94778.22;;;14.57;41.88
64668;BME280;51077;42.716;23.344;2024-01-06T11:34:17;94786.16;;;14.91;41.30
64668;BME280;51077;42.716;23.344;2024-01-06T11:36:47;94783.94;;;15.13;40.97
64668;BME280;51077;42.716;23.344;2024-01-06T11:39:35;94772.78;;;15.81;39.70
64668;BME280;51077;42.716;23.344;2024-01-06T11:42:04;94758.63;;;16.10;39.21
64668;BME280;51077;42.716;23.344;2024-01-06T11:44:33;94755.44;;;16.21;38.95
64668;BME280;51077;42.716;23.344;2024-01-06T11:46:59;94745.84;;;16.22;38.70
64668;BME280;51077;42.716;23.344;2024-01-06T11:49:26;94738.59;;;16.27;38.60
64668;BME280;51077;42.716;23.344;2024-01-06T11:51:56;94739.06;;;16.41;38.46
64668;BME280;51077;42.716;23.344;2024-01-06T11:54:22;94707.22;;;16.57;38.19
64668;BME280;51077;42.716;23.344;2024-01-06T11:56:48;94711.78;;;16.62;37.99
64668;BME280;51077;42.716;23.344;2024-01-06T11:59:13;94722.88;;;16.62;37.94
64668;BME280;51077;42.716;23.344;2024-01-06T12:01:39;94714.75;;;16.89;37.58
64668;BME280;51077;42.716;23.344;2024-01-06T12:04:05;94706.78;;;17.11;37.38
64668;BME280;51077;42.716;23.344;2024-01-06T12:06:31;94706.31;;;17.22;37.00
64668;BME280;51077;42.716;23.344;2024-01-06T12:09:07;94708.69;;;17.25;36.87
64668;BME280;51077;42.716;23.344;2024-01-06T12:11:33;94702.06;;;17.21;37.10
64668;BME280;51077;42.716;23.344;2024-01-06T12:13:59;94692.91;;;17.11;37.03
64668;BME280;51077;42.716;23.344;2024-01-06T12:16:24;94674.63;;;16.90;37.53
64668;BME280;51077;42.716;23.344;2024-01-06T12:18:54;94663.16;;;16.69;37.82
64668;BME280;51077;42.716;23.344;2024-01-06T12:21:23;94662.94;;;16.49;38.16
64668;BME280;51077;42.716;23.344;2024-01-06T12:23:49;94690.56;;;16.32;38.61
64668;BME280;51077;42.716;23.344;2024-01-06T12:26:16;94689.22;;;16.16;38.96
64668;BME280;51077;42.716;23.344;2024-01-06T12:28:44;94689.28;;;16.00;39.27
64668;BME280;51077;42.716;23.344;2024-01-06T12:31:10;94691.97;;;15.83;39.51
64668;BME280;51077;42.716;23.344;2024-01-06T12:33:38;94700.34;;;15.68;39.94
64668;BME280;51077;42.716;23.344;2024-01-06T12:36:04;94691.34;;;15.52;40.16
64668;BME280;51077;42.716;23.344;2024-01-06T12:38:31;94698.41;;;15.38;40.60
64668;BME280;51077;42.716;23.344;2024-01-06T12:40:57;94697.47;;;15.27;40.61
64668;BME280;51077;42.716;23.344;2024-01-06T12:43:22;94675.78;;;15.16;41.00
64668;BME280;51077;42.716;23.344;2024-01-06T12:45:47;94686.47;;;15.12;41.10
64668;BME280;51077;42.716;23.344;2024-01-06T12:48:14;94684.81;;;15.17;41.06
64668;BME280;51077;42.716;23.344;2024-01-06T12:50:39;94684.25;;;15.18;41.16